Time;durP1;ratioP1;P1;durP2;ratioP2;P2;SDS_P1;SDS_P2;PMS_P1;PMS_P2;Temp;Humidity;BMP_temperature;BMP_pressure;BME280_temperature;BME280_humidity;BME280_pressure;Samples;Min_cycle;Max_cycle;Signal;HPM_P1;HPM_P2
2022/03/16 00:06:01;;;;;;;;;;;;;;;;;;;;;
2022/03/16 00:09:19;;;;;;;;;;;;;;;;;;;;;
2022/03/16 00:13:18;;;;;;;72.03;43.42;;;154.50;2252.80;;;;;;4901780;29;20039;-80
2022/03/16 00:15:51;;;;;;;96.07;58.00;;;154.50;2252.80;;;;;;4908188;29;20048;-80
2022/03/16 00:38:12;;;;;;;;;;;;;;;;;;;;;
2022/03/16 00:44:46;;;;;;;;;;;;;;;;;;;;;
2022/03/16 00:54:40;;;;;;;104.43;63.40;;;154.40;2252.80;;;;;;4822432;29;20033;-80
2022/03/16 01:04:35;;;;;;;125.15;70.82;;;154.40;2252.80;;;;;;4822767;29;20042;-79
2022/03/16 01:15:11;;;;;;;97.43;57.30;;;154.50;2252.80;;;;;;4821979;29;20151;-80
2022/03/16 02:08:19;;;;;;;94.57;60.55;;;154.20;2252.80;;;;;;4917344;29;20083;-80
2022/03/16 02:53:31;;;;;;;95.93;58.67;;;154.20;2252.80;;;;;;4681322;30;20467;-79
2022/03/16 02:56:39;;;;;;;108.95;66.45;;;154.30;2252.80;;;;;;4669878;30;20050;-79
2022/03/16 04:41:31;;;;;;;;;;;;;;;;;;;;;
2022/03/16 04:44:58;;;;;;;;;;;;;;;;;;;;;
2022/03/16 06:11:18;;;;;;;163.75;104.40;;;154.40;2252.80;;;;;;4900400;29;20379;-79
2022/03/16 06:14:08;;;;;;;171.50;115.72;;;154.50;2252.80;;;;;;4900092;29;20533;-81
2022/03/16 06:28:09;;;;;;;219.27;138.98;;;179.30;2252.80;;;;;;4843887;29;20037;-80
2022/03/16 06:41:28;;;;;;;148.10;96.07;;;179.20;2252.80;;;;;;4843939;29;20049;-80
2022/03/16 06:50:48;;;;;;;135.70;86.63;;;179.60;2252.80;;;;;;4811902;29;20073;-80
2022/03/16 06:53:27;;;;;;;130.13;88.05;;;179.50;2252.80;;;;;;4828146;29;20030;-81
2022/03/16 06:56:09;;;;;;;131.07;86.88;;;179.60;2252.80;;;;;;4885522;29;20031;-81
2022/03/16 07:02:57;;;;;;;;;;;;;;;;;;;;;
2022/03/16 07:06:21;;;;;;;200.60;133.77;;;179.70;2252.80;;;;;;4863118;29;20040;-80
2022/03/16 08:11:02;;;;;;;118.35;76.70;;;230.40;2252.80;;;;;;4879554;29;20447;-80
2022/03/16 08:27:28;;;;;;;182.23;116.63;;;230.80;2252.80;;;;;;4918331;29;20023;-80
2022/03/16 08:29:55;;;;;;;158.13;100.22;;;230.90;2252.80;;;;;;4901514;29;20022;-79
2022/03/16 08:32:22;;;;;;;122.80;89.60;;;230.60;2252.80;;;;;;4901507;29;20047;-80
2022/03/16 09:09:50;;;;;;;63.55;38.15;;;281.80;2278.40;;;;;;4733648;30;20409;-80
2022/03/16 09:15:38;;;;;;;56.53;35.38;;;282.10;2227.20;;;;;;4746306;30;20098;-79
2022/03/16 09:18:09;;;;;;;59.72;41.08;;;282.30;2252.80;;;;;;4752441;29;20438;-79
2022/03/16 09:20:45;;;;;;;55.78;36.67;;;282.50;2201.60;;;;;;4781305;29;20031;-80
2022/03/16 09:23:10;;;;;;;68.10;43.55;;;307.30;2252.80;;;;;;4807683;29;20094;-79
2022/03/16 09:25:36;;;;;;;53.60;33.72;;;307.30;2252.80;;;;;;4869661;29;20482;-78
2022/03/16 09:28:03;;;;;;;87.68;55.10;;;307.30;2227.20;;;;;;4900760;29;20086;-78
2022/03/16 09:30:28;;;;;;;71.15;45.20;;;307.30;2176.00;;;;;;4899890;29;20032;-79
2022/03/16 09:32:58;;;;;;;46.78;32.42;;;307.40;2176.00;;;;;;4900346;29;20020;-76
2022/03/16 09:35:24;;;;;;;39.90;28.02;;;307.40;2150.40;;;;;;4900572;29;20044;-77
2022/03/16 09:37:50;;;;;;;65.00;47.25;;;307.40;2124.80;;;;;;4900327;29;20438;-78
2022/03/16 09:40:17;;;;;;;64.63;44.90;;;307.50;2099.20;;;;;;4900611;29;20032;-76
2022/03/16 09:42:45;;;;;;;107.97;70.65;;;307.50;2073.60;;;;;;4917588;29;20074;-77
2022/03/16 09:45:18;;;;;;;63.00;34.60;;;307.50;2099.20;;;;;;4900372;29;20028;-75
2022/03/16 09:47:45;;;;;;;41.55;27.60;;;307.50;2150.40;;;;;;4900704;29;20456;-77
2022/03/16 09:50:11;;;;;;;46.33;27.73;;;307.50;2073.60;;;;;;4900463;29;20060;-76
2022/03/16 09:52:39;;;;;;;33.63;21.95;;;307.60;2099.20;;;;;;4917062;29;20024;-76
2022/03/16 09:55:05;;;;;;;41.17;26.15;;;307.60;2048.00;;;;;;4900438;29;20081;-78
2022/03/16 09:57:34;;;;;;;41.72;27.30;;;307.80;2073.60;;;;;;4900409;29;20126;-78
2022/03/16 10:00:03;;;;;;;35.35;23.92;;;307.80;2048.00;;;;;;4917176;29;20035;-80
2022/03/16 10:02:56;;;;;;;33.80;21.45;;;308.00;2099.20;;;;;;4917350;29;20028;-78
2022/03/16 10:05:26;;;;;;;32.67;19.70;;;308.10;2048.00;;;;;;4893818;29;20087;-79
2022/03/16 10:07:54;;;;;;;26.95;19.83;;;308.10;1971.20;;;;;;4916828;29;20024;-81
2022/03/16 10:13:57;;;;;;;48.05;30.35;;;332.90;1996.80;;;;;;4935726;29;20030;-77
2022/03/16 10:16:23;;;;;;;46.95;26.88;;;332.90;1971.20;;;;;;4902808;29;20024;-79
2022/03/16 10:18:57;;;;;;;36.53;23.25;;;332.90;1945.60;;;;;;4900430;29;20116;-79
2022/03/16 10:21:24;;;;;;;43.13;26.08;;;332.90;1971.20;;;;;;4899924;29;20067;-76
2022/03/16 10:23:50;;;;;;;41.25;26.02;;;333.10;1996.80;;;;;;4900174;29;20044;-78
2022/03/16 10:26:21;;;;;;;35.35;23.08;;;333.20;2022.40;;;;;;4900113;29;20028;-80
2022/03/16 10:28:47;;;;;;;29.23;18.48;;;333.30;1996.80;;;;;;4916657;29;20016;-77
2022/03/16 10:31:15;;;;;;;25.75;17.45;;;333.40;1971.20;;;;;;4916869;29;20040;-79
2022/03/16 10:33:45;;;;;;;23.35;17.05;;;333.50;1945.60;;;;;;4899854;29;20020;-77
2022/03/16 10:36:13;;;;;;;30.55;19.13;;;333.50;1971.20;;;;;;4899934;29;20369;-79
2022/03/16 10:38:46;;;;;;;30.95;16.30;;;333.70;1945.60;;;;;;4899728;29;20055;-76
2022/03/16 10:41:13;;;;;;;;;;;333.70;1894.40;;;;;;4900291;29;20024;-76
2022/03/16 10:46:38;;;;;;;28.00;19.67;;;333.70;1894.40;;;;;;4916982;29;20088;-77
2022/03/16 10:49:09;;;;;;;32.17;20.85;;;358.40;1868.80;;;;;;4899537;29;20043;-78
2022/03/16 10:51:36;;;;;;;30.02;20.23;;;358.50;1894.40;;;;;;4899904;29;20079;-77
2022/03/16 10:54:04;;;;;;;20.95;14.68;;;358.60;1920.00;;;;;;4899764;29;20028;-77
2022/03/16 10:56:31;;;;;;;28.67;18.75;;;358.60;1920.00;;;;;;4916198;29;20407;-76
2022/03/16 10:58:58;;;;;;;30.48;18.35;;;358.70;1894.40;;;;;;4899917;29;20031;-79
2022/03/16 11:01:28;;;;;;;30.85;19.60;;;358.70;1894.40;;;;;;4900005;29;20024;-76
2022/03/16 11:03:58;;;;;;;29.70;21.20;;;358.70;1843.20;;;;;;4917505;29;20060;-77
2022/03/16 11:06:25;;;;;;;25.98;16.40;;;333.70;1894.40;;;;;;4903330;29;20016;-77
2022/03/16 11:08:52;;;;;;;25.33;17.10;;;358.80;1894.40;;;;;;4902834;29;20024;-75
2022/03/16 11:14:05;;;;;;;66.03;42.70;;;358.80;1817.60;;;;;;4920074;29;20474;-77
2022/03/16 11:16:32;;;;;;;46.30;27.38;;;358.80;1868.80;;;;;;4902766;29;20024;-76
2022/03/16 11:19:03;;;;;;;32.40;20.73;;;359.00;1894.40;;;;;;4887817;29;20398;-75
2022/03/16 11:21:35;;;;;;;51.88;31.60;;;359.00;1843.20;;;;;;4902995;29;20031;-75
2022/03/16 11:24:17;;;;;;;;;;;358.90;1792.00;;;;;;4903091;29;20024;-76
2022/03/16 11:26:49;;;;;;;28.05;18.48;;;359.00;1817.60;;;;;;4902729;29;19903;-76
2022/03/16 11:29:34;;;;;;;25.77;15.10;;;359.00;1792.00;;;;;;4902845;29;20473;-76
2022/03/16 11:32:11;;;;;;;21.88;12.73;;;359.10;1843.20;;;;;;4902473;29;20032;-76
2022/03/16 11:34:37;;;;;;;20.15;12.45;;;359.20;1843.20;;;;;;4902628;29;20566;-77
2022/03/16 11:37:07;;;;;;;20.00;13.73;;;384.50;1817.60;;;;;;4902384;29;20529;-77
2022/03/16 11:39:42;;;;;;;24.00;16.65;;;384.20;1868.80;;;;;;4902890;29;20450;-76
2022/03/16 11:42:08;;;;;;;26.40;20.60;;;384.40;1894.40;;;;;;4902615;29;20028;-77
2022/03/16 11:44:34;;;;;;;24.73;18.27;;;384.00;1868.80;;;;;;4902498;29;20462;-77
2022/03/16 11:47:09;;;;;;;24.63;15.18;;;384.50;1843.20;;;;;;4902475;29;20115;-78
2022/03/16 11:49:42;;;;;;;31.48;15.90;;;384.50;1817.60;;;;;;4902591;29;20034;-77
2022/03/16 11:52:08;;;;;;;35.25;21.77;;;384.50;1792.00;;;;;;4902348;29;20422;-77
2022/03/16 11:54:42;;;;;;;23.98;16.70;;;384.50;1792.00;;;;;;4902429;29;20481;-77
2022/03/16 11:57:09;;;;;;;21.13;15.20;;;384.40;1792.00;;;;;;4902464;29;20087;-77
2022/03/16 11:59:40;;;;;;;19.05;11.75;;;384.40;1843.20;;;;;;4902148;29;20522;-77
2022/03/16 12:02:27;;;;;;;25.70;16.27;;;384.40;1792.00;;;;;;4902607;29;20363;-77
2022/03/16 12:05:01;;;;;;;29.20;16.10;;;384.60;1792.00;;;;;;4918788;29;20036;-77
2022/03/16 12:07:30;;;;;;;25.00;14.60;;;384.50;1766.40;;;;;;4919168;29;20115;-77
2022/03/16 12:09:56;;;;;;;27.02;12.85;;;384.60;1817.60;;;;;;4902124;29;20028;-80
2022/03/16 12:15:15;;;;;;;24.42;15.40;;;384.60;1843.20;;;;;;4917486;29;20039;-78
2022/03/16 12:17:56;;;;;;;24.90;16.02;;;384.70;1817.60;;;;;;4901989;29;20020;-76
2022/03/16 12:20:49;;;;;;;34.70;21.98;;;384.70;1792.00;;;;;;4901627;29;20027;-76
2022/03/16 12:23:41;;;;;;;24.42;14.35;;;384.70;1766.40;;;;;;4901880;29;20084;-79
2022/03/16 12:26:07;;;;;;;17.42;10.57;;;384.70;1740.80;;;;;;4901440;29;20036;-78
2022/03/16 12:31:19;;;;;;;24.67;16.45;;;409.60;1792.00;;;;;;4918796;29;20039;-80
2022/03/16 12:33:57;;;;;;;22.85;15.35;;;384.90;1740.80;;;;;;4918158;29;20030;-78
2022/03/16 12:36:27;;;;;;;34.88;21.30;;;384.90;1792.00;;;;;;4918664;29;20048;-77
2022/03/16 12:39:08;;;;;;;40.25;22.42;;;384.80;1792.00;;;;;;4901679;29;20024;-75
2022/03/16 12:44:20;;;;;;;52.03;18.77;;;384.70;1792.00;;;;;;4918484;29;20476;-80
2022/03/16 12:47:10;;;;;;;154.90;37.75;;;384.70;1740.80;;;;;;4901338;29;20024;-77
2022/03/16 12:49:44;;;;;;;76.40;25.77;;;384.80;1740.80;;;;;;4901424;29;20044;-78
2022/03/16 12:52:10;;;;;;;32.22;21.92;;;384.80;1792.00;;;;;;4901415;29;20020;-78
2022/03/16 12:54:37;;;;;;;35.72;17.77;;;384.90;1740.80;;;;;;4901349;29;20386;-78
2022/03/16 12:57:15;;;;;;;23.90;15.40;;;384.90;1766.40;;;;;;4901346;29;20115;-78
2022/03/16 12:59:48;;;;;;;27.42;19.70;;;384.90;1715.20;;;;;;4901203;29;20568;-78
2022/03/16 13:02:18;;;;;;;15.02;9.50;;;384.90;1715.20;;;;;;4901249;29;20064;-79
2022/03/16 13:04:44;;;;;;;52.53;24.67;;;384.90;1715.20;;;;;;4900999;29;20031;-77
2022/03/16 13:07:10;;;;;;;53.28;30.60;;;384.90;1766.40;;;;;;4901360;29;20028;-76
2022/03/16 13:09:39;;;;;;;41.35;27.88;;;384.70;1792.00;;;;;;4901153;29;20032;-77
2022/03/16 13:12:10;;;;;;;56.90;36.85;;;384.70;1766.40;;;;;;4900781;29;20024;-76
2022/03/16 13:14:38;;;;;;;55.95;35.92;;;384.60;1792.00;;;;;;4900904;29;20164;-76
2022/03/16 13:17:07;;;;;;;70.07;42.97;;;384.50;1792.00;;;;;;4901004;29;20031;-76
2022/03/16 13:19:34;;;;;;;42.17;25.27;;;384.50;1817.60;;;;;;4917654;29;20027;-77
2022/03/16 13:22:12;;;;;;;58.63;32.05;;;384.40;1817.60;;;;;;4900870;29;20107;-74
2022/03/16 13:25:04;;;;;;;135.10;38.95;;;384.20;1817.60;;;;;;4917584;29;20378;-77
2022/03/16 13:27:35;;;;;;;361.90;82.38;;;384.10;1817.60;;;;;;4914496;29;20032;-76
2022/03/16 13:30:08;;;;;;;124.82;30.75;;;384.00;1817.60;;;;;;4900847;29;20031;-76
2022/03/16 13:32:38;;;;;;;43.85;24.05;;;359.30;1843.20;;;;;;4900894;29;20028;-74
2022/03/16 13:35:18;;;;;;;59.40;20.45;;;359.20;1843.20;;;;;;4915598;29;20016;-73
2022/03/16 13:37:54;;;;;;;67.68;32.70;;;359.10;1843.20;;;;;;4919288;29;20024;-76
2022/03/16 13:40:42;;;;;;;43.63;20.92;;;359.10;1868.80;;;;;;4900920;29;20072;-75
2022/03/16 13:43:11;;;;;;;50.28;23.27;;;359.00;1868.80;;;;;;4917421;29;20098;-77
2022/03/16 13:45:46;;;;;;;36.05;18.42;;;358.90;1894.40;;;;;;4900607;29;20035;-76
2022/03/16 13:48:32;;;;;;;37.40;20.42;;;358.80;1920.00;;;;;;4900068;29;20048;-77
2022/03/16 13:50:58;;;;;;;100.55;42.67;;;358.60;1945.60;;;;;;4900582;29;20526;-77
2022/03/16 13:53:29;;;;;;;62.97;27.50;;;358.50;1971.20;;;;;;4900245;29;20020;-74
2022/03/16 13:56:10;;;;;;;56.87;33.13;;;358.40;1996.80;;;;;;4917822;29;20036;-78
2022/03/16 13:58:38;;;;;;;48.20;28.75;;;333.70;2022.40;;;;;;4900475;29;20151;-75
2022/03/16 14:01:04;;;;;;;74.43;36.20;;;333.60;2022.40;;;;;;4917449;29;20028;-75
2022/03/16 14:03:30;;;;;;;62.30;35.05;;;333.60;2048.00;;;;;;4900550;29;20024;-75
2022/03/16 14:05:57;;;;;;;68.70;39.95;;;333.50;2073.60;;;;;;4900393;29;20344;-74
2022/03/16 14:08:24;;;;;;;79.82;28.63;;;333.40;2099.20;;;;;;4917374;29;20055;-78
2022/03/16 14:10:54;;;;;;;75.05;38.08;;;333.30;2099.20;;;;;;4900286;29;20024;-76
2022/03/16 14:13:23;;;;;;;62.80;32.10;;;333.20;2150.40;;;;;;4917416;29;20056;-74
2022/03/16 14:16:10;;;;;;;47.92;29.35;;;333.00;2201.60;;;;;;4900014;29;20036;-74
2022/03/16 14:18:36;;;;;;;48.72;29.92;;;332.90;2201.60;;;;;;4900052;29;20084;-76
2022/03/16 14:21:01;;;;;;;67.57;42.53;;;308.10;2252.80;;;;;;4900217;29;20028;-75
2022/03/16 14:23:29;;;;;;;36.78;28.00;;;308.10;2278.40;;;;;;4916999;29;20048;-75
2022/03/16 14:25:57;;;;;;;60.13;39.83;;;308.00;2278.40;;;;;;4900142;29;20021;-75
2022/03/16 14:28:23;;;;;;;53.50;39.17;;;307.90;2304.00;;;;;;4899829;29;20024;-74
2022/03/16 14:30:51;;;;;;;54.08;33.40;;;307.90;2304.00;;;;;;4900168;29;20027;-75
2022/03/16 14:33:23;;;;;;;43.45;28.65;;;307.80;2304.00;;;;;;4900080;29;20035;-74
2022/03/16 14:35:50;;;;;;;61.40;42.40;;;307.70;2304.00;;;;;;4917068;29;20370;-76
2022/03/16 14:38:16;;;;;;;50.38;34.08;;;307.60;2304.00;;;;;;4900087;29;20084;-75
2022/03/16 14:40:54;;;;;;;42.95;29.75;;;307.60;2304.00;;;;;;4920394;29;20378;-75
2022/03/16 14:43:21;;;;;;;50.63;30.75;;;307.60;2304.00;;;;;;4903338;29;20054;-74
2022/03/16 14:45:47;;;;;;;80.40;51.67;;;307.60;2304.00;;;;;;4903626;29;20435;-77
2022/03/16 14:48:13;;;;;;;50.83;31.67;;;307.60;2304.00;;;;;;4903270;29;20048;-74
2022/03/16 14:50:39;;;;;;;57.47;34.70;;;307.50;2304.00;;;;;;4903232;29;20024;-75
2022/03/16 14:53:07;;;;;;;54.05;34.72;;;307.50;2304.00;;;;;;4903580;29;20477;-75
2022/03/16 14:55:34;;;;;;;52.35;32.45;;;307.50;2304.00;;;;;;4903393;29;20180;-74
2022/03/16 14:58:01;;;;;;;42.13;28.52;;;307.50;2304.00;;;;;;4903093;29;20028;-75
2022/03/16 15:00:27;;;;;;;53.83;38.65;;;307.40;2304.00;;;;;;4920315;29;20028;-77
2022/03/16 15:02:54;;;;;;;50.40;34.17;;;307.40;2304.00;;;;;;4903370;29;20028;-76
2022/03/16 15:05:20;;;;;;;39.20;26.30;;;307.40;2304.00;;;;;;4919726;29;20095;-75
2022/03/16 15:07:47;;;;;;;41.42;27.92;;;307.40;2304.00;;;;;;4920152;29;20024;-76
2022/03/16 15:10:17;;;;;;;46.45;32.45;;;307.40;2304.00;;;;;;4921266;29;20016;-78
2022/03/16 15:12:46;;;;;;;45.05;27.33;;;307.40;2304.00;;;;;;4905293;29;20095;-79
2022/03/16 15:15:12;;;;;;;35.38;26.05;;;307.50;2304.00;;;;;;4904123;29;20076;-79
2022/03/16 15:17:40;;;;;;;34.58;24.00;;;307.50;2304.00;;;;;;4902542;29;20072;-76
2022/03/16 15:20:07;;;;;;;51.35;36.50;;;307.40;2304.00;;;;;;4902961;29;20700;-78
2022/03/16 15:22:36;;;;;;;94.65;72.95;;;307.40;2304.00;;;;;;4902741;29;20024;-78
2022/03/16 15:27:58;;;;;;;48.03;38.38;;;307.30;2304.00;;;;;;4919662;29;20055;-78
2022/03/16 15:30:34;;;;;;;77.20;52.08;;;307.30;2304.00;;;;;;4903175;29;20487;-78
2022/03/16 15:33:03;;;;;;;92.28;66.50;;;282.50;2278.40;;;;;;4903096;29;20032;-79
2022/03/16 15:35:31;;;;;;;74.88;55.20;;;307.20;2304.00;;;;;;4919683;29;20115;-78
2022/03/16 15:38:23;;;;;;;68.30;47.20;;;282.50;2278.40;;;;;;4901907;29;20024;-78
2022/03/16 15:44:04;;;;;;;33.58;21.17;;;282.50;2278.40;;;;;;4919708;29;20061;-79
2022/03/16 15:46:40;;;;;;;62.63;44.17;;;282.40;2278.40;;;;;;4919022;29;20488;-78
2022/03/16 15:49:24;;;;;;;45.33;32.25;;;282.50;2278.40;;;;;;4901929;29;20052;-79
2022/03/16 15:51:55;;;;;;;63.47;41.17;;;282.40;2278.40;;;;;;4902563;29;20020;-77
2022/03/16 15:54:47;;;;;;;;;;;;;;;;;;;;;
2022/03/16 15:57:13;;;;;;;43.45;31.55;;;282.40;2278.40;;;;;;4919361;29;20023;-82
2022/03/16 15:59:45;;;;;;;46.50;32.78;;;282.30;2278.40;;;;;;4901747;29;20459;-78
2022/03/16 16:02:11;;;;;;;41.42;31.83;;;282.30;2278.40;;;;;;4902476;29;20024;-78
2022/03/16 16:04:37;;;;;;;43.75;32.35;;;282.30;2278.40;;;;;;4901932;29;20119;-77
2022/03/16 16:07:10;;;;;;;47.65;31.20;;;281.80;2278.40;;;;;;4902546;29;20088;-77
2022/03/16 16:09:50;;;;;;;41.38;25.08;;;282.30;2278.40;;;;;;4919157;29;20042;-78
2022/03/16 16:13:03;;;;;;;;;;;;;;;;;;;;;
2022/03/16 16:26:22;;;;;;;39.20;27.00;;;282.10;2278.40;;;;;;4878377;29;20506;-79
2022/03/16 16:31:56;;;;;;;43.00;24.73;;;282.00;2278.40;;;;;;4878548;29;20433;-78
2022/03/16 16:44:49;;;;;;;40.78;28.10;;;282.00;2278.40;;;;;;4878917;29;20032;-77
2022/03/16 16:47:23;;;;;;;43.67;33.42;;;282.00;2278.40;;;;;;4895795;29;20475;-76
2022/03/16 16:49:48;;;;;;;51.90;36.35;;;282.00;2278.40;;;;;;4901462;29;20028;-77
2022/03/16 16:52:14;;;;;;;44.75;33.38;;;282.00;2278.40;;;;;;4901137;29;20485;-77
2022/03/16 16:54:40;;;;;;;54.35;34.70;;;282.00;2278.40;;;;;;4900887;29;20055;-76
2022/03/16 16:57:23;;;;;;;53.88;38.88;;;282.00;2278.40;;;;;;4918059;29;20039;-78
2022/03/16 16:59:49;;;;;;;48.22;34.35;;;282.00;2278.40;;;;;;4901366;29;20370;-79
2022/03/16 17:02:15;;;;;;;46.60;31.08;;;282.00;2278.40;;;;;;4917830;29;20020;-78
2022/03/16 17:04:40;;;;;;;43.67;31.48;;;282.00;2278.40;;;;;;4900906;29;20035;-78
2022/03/16 17:07:09;;;;;;;55.60;38.40;;;281.90;2278.40;;;;;;4901110;29;20549;-79
2022/03/16 17:09:38;;;;;;;73.45;51.50;;;281.90;2278.40;;;;;;4902281;29;20020;-79
2022/03/16 17:12:05;;;;;;;91.97;65.40;;;281.80;2278.40;;;;;;4923091;29;20032;-79
2022/03/16 17:14:31;;;;;;;103.68;73.15;;;281.80;2278.40;;;;;;4907647;29;20036;-78
2022/03/16 17:16:57;;;;;;;80.40;59.25;;;281.70;2278.40;;;;;;4901457;29;20123;-80
2022/03/16 17:19:23;;;;;;;66.00;48.97;;;281.70;2278.40;;;;;;4901177;29;20028;-79
2022/03/16 17:21:51;;;;;;;145.80;111.32;;;281.70;2278.40;;;;;;4900927;29;20447;-78
2022/03/16 17:24:17;;;;;;;161.50;129.75;;;281.70;2278.40;;;;;;4917329;29;20490;-77
2022/03/16 17:26:43;;;;;;;109.40;80.65;;;281.70;2278.40;;;;;;4900908;29;20047;-79
2022/03/16 17:29:08;;;;;;;99.55;72.13;;;281.60;2278.40;;;;;;4900471;29;20159;-78
2022/03/16 17:31:45;;;;;;;81.43;59.13;;;281.60;2278.40;;;;;;4900202;29;20118;-78
2022/03/16 17:34:11;;;;;;;79.50;56.20;;;281.60;2278.40;;;;;;4900731;29;20020;-77
2022/03/16 17:36:36;;;;;;;95.97;68.28;;;281.60;2278.40;;;;;;4900981;29;20451;-77
2022/03/16 17:45:32;;;;;;;118.13;83.13;;;256.90;2252.80;;;;;;4916978;29;20035;-75
2022/03/16 17:48:03;;;;;;;126.65;89.68;;;256.90;2252.80;;;;;;4900193;29;20061;-76
2022/03/16 17:50:40;;;;;;;136.63;94.63;;;256.80;2252.80;;;;;;4900427;29;20044;-77
2022/03/16 17:53:07;;;;;;;131.88;95.97;;;256.70;2252.80;;;;;;4900331;29;20462;-79
2022/03/16 17:58:17;;;;;;;122.10;90.72;;;256.60;2252.80;;;;;;4917247;29;20383;-77
2022/03/16 18:00:44;;;;;;;111.78;83.85;;;256.70;2252.80;;;;;;4900258;29;20024;-76
2022/03/16 18:03:10;;;;;;;109.85;78.45;;;256.60;2252.80;;;;;;4917432;29;20028;-77
2022/03/16 18:05:41;;;;;;;111.38;78.90;;;256.30;2252.80;;;;;;4900130;29;20032;-76
2022/03/16 18:08:10;;;;;;;127.22;93.47;;;256.50;2252.80;;;;;;4917332;29;20016;-77
2022/03/16 18:13:23;;;;;;;151.75;105.25;;;256.50;2252.80;;;;;;4918991;29;20097;-76
2022/03/16 18:15:54;;;;;;;224.40;150.40;;;256.40;2252.80;;;;;;4904125;29;20028;-77
2022/03/16 18:18:21;;;;;;;234.80;150.27;;;256.40;2252.80;;;;;;4904231;29;20485;-76
2022/03/16 18:20:51;;;;;;;239.80;150.70;;;256.40;2252.80;;;;;;4903888;29;20024;-76
2022/03/16 18:23:18;;;;;;;186.60;127.85;;;256.30;2252.80;;;;;;4904146;29;20035;-77
2022/03/16 18:25:49;;;;;;;187.93;128.13;;;256.10;2252.80;;;;;;4920742;29;20035;-77
2022/03/16 18:28:16;;;;;;;207.75;141.82;;;256.20;2252.80;;;;;;4903810;29;20035;-76
2022/03/16 18:30:42;;;;;;;177.30;130.77;;;256.20;2252.80;;;;;;4903910;29;20122;-75
2022/03/16 18:33:08;;;;;;;173.82;123.60;;;256.20;2252.80;;;;;;4920541;29;20064;-76
2022/03/16 18:35:35;;;;;;;186.02;131.68;;;256.10;2252.80;;;;;;4903360;29;20036;-77
2022/03/16 18:38:02;;;;;;;240.43;169.35;;;256.40;2252.80;;;;;;4903746;29;20047;-77
2022/03/16 18:40:28;;;;;;;230.80;161.30;;;256.10;2252.80;;;;;;4903494;29;20060;-76
2022/03/16 18:42:57;;;;;;;225.50;161.73;;;256.20;2252.80;;;;;;4903766;29;20418;-76
2022/03/16 18:45:25;;;;;;;242.35;149.02;;;256.00;2252.80;;;;;;4903733;29;20083;-76
2022/03/16 18:47:52;;;;;;;166.98;121.13;;;231.30;2252.80;;;;;;4903000;29;20052;-77
2022/03/16 18:50:22;;;;;;;137.18;102.78;;;231.20;2252.80;;;;;;4903507;29;20099;-77
2022/03/16 18:52:52;;;;;;;114.13;81.97;;;231.10;2252.80;;;;;;4903497;29;20110;-78
2022/03/16 18:55:18;;;;;;;102.80;80.32;;;231.10;2252.80;;;;;;4920245;29;20454;-80
2022/03/16 18:57:44;;;;;;;58.25;45.33;;;231.10;2252.80;;;;;;4903519;29;20038;-79
2022/03/16 19:00:13;;;;;;;78.15;58.50;;;231.10;2252.80;;;;;;4903463;29;20028;-80
2022/03/16 19:02:39;;;;;;;86.18;64.20;;;231.20;2252.80;;;;;;4903035;29;20020;-79
2022/03/16 19:05:06;;;;;;;110.15;81.28;;;231.10;2252.80;;;;;;4903368;29;20034;-80
2022/03/16 19:07:32;;;;;;;112.90;78.03;;;231.20;2252.80;;;;;;4903468;29;20020;-80
2022/03/16 19:09:58;;;;;;;86.90;62.28;;;231.20;2252.80;;;;;;4902895;29;20028;-79
2022/03/16 19:15:09;;;;;;;151.00;109.50;;;231.20;2252.80;;;;;;4919925;29;20118;-77
2022/03/16 19:17:36;;;;;;;145.85;102.47;;;231.20;2252.80;;;;;;4902801;29;20033;-80
2022/03/16 19:20:04;;;;;;;159.63;115.47;;;256.00;2252.80;;;;;;4903070;29;20031;-78
2022/03/16 19:22:33;;;;;;;183.18;128.18;;;231.30;2252.80;;;;;;4902745;29;20455;-80
2022/03/16 19:24:59;;;;;;;201.68;143.48;;;231.10;2252.80;;;;;;4902346;29;20031;-78
2022/03/16 19:27:25;;;;;;;199.52;140.85;;;256.10;2252.80;;;;;;4902896;29;20024;-78
2022/03/16 19:29:52;;;;;;;202.45;141.82;;;231.10;2252.80;;;;;;4919645;29;20030;-82
2022/03/16 19:32:18;;;;;;;198.23;138.73;;;231.10;2252.80;;;;;;4902868;29;20080;-79
2022/03/16 19:34:45;;;;;;;177.73;127.50;;;231.20;2252.80;;;;;;4902607;29;20032;-77
2022/03/16 19:37:14;;;;;;;183.77;128.10;;;231.20;2252.80;;;;;;4919858;29;20039;-78
2022/03/16 19:39:42;;;;;;;201.43;135.95;;;231.20;2252.80;;;;;;4902765;29;20036;-78
2022/03/16 19:42:08;;;;;;;180.73;132.02;;;231.20;2252.80;;;;;;4902785;29;20028;-78
2022/03/16 19:44:37;;;;;;;173.77;122.47;;;231.10;2252.80;;;;;;4902477;29;20427;-77
2022/03/16 19:47:03;;;;;;;158.32;117.85;;;231.20;2252.80;;;;;;4902609;29;20056;-77
2022/03/16 19:49:32;;;;;;;152.25;110.50;;;230.70;2252.80;;;;;;4901976;29;20099;-79
2022/03/16 19:51:59;;;;;;;165.93;125.95;;;231.10;2252.80;;;;;;4902090;29;20103;-78
2022/03/16 19:54:26;;;;;;;192.63;132.45;;;231.00;2252.80;;;;;;4902499;29;20028;-80
2022/03/16 19:56:53;;;;;;;170.82;124.45;;;231.00;2252.80;;;;;;4902142;29;20047;-79
2022/03/16 19:59:19;;;;;;;210.38;145.88;;;231.00;2252.80;;;;;;4901935;29;20177;-79
2022/03/16 20:02:10;;;;;;;240.55;165.45;;;231.10;2252.80;;;;;;4902213;29;20062;-77
2022/03/16 20:04:42;;;;;;;307.55;163.32;;;231.10;2252.80;;;;;;4901928;29;20035;-77
2022/03/16 20:07:26;;;;;;;157.82;103.43;;;231.10;2252.80;;;;;;4902123;29;20034;-78
2022/03/16 20:10:01;;;;;;;149.27;107.03;;;231.10;2252.80;;;;;;4902047;29;20474;-77
2022/03/16 20:12:27;;;;;;;140.35;104.90;;;231.00;2252.80;;;;;;4901975;29;20028;-73
2022/03/16 20:14:55;;;;;;;108.93;85.45;;;230.90;2252.80;;;;;;4901794;29;20375;-75
2022/03/16 20:17:28;;;;;;;106.35;79.85;;;230.80;2252.80;;;;;;4918830;29;20092;-75
2022/03/16 20:19:59;;;;;;;98.85;73.50;;;230.70;2252.80;;;;;;4918685;29;20470;-77
2022/03/16 20:22:27;;;;;;;112.03;79.93;;;230.80;2252.80;;;;;;4902016;29;20111;-77
2022/03/16 20:24:57;;;;;;;109.55;76.13;;;230.90;2252.80;;;;;;4901789;29;20032;-79
2022/03/16 20:27:27;;;;;;;104.30;75.35;;;231.00;2252.80;;;;;;4901838;29;20047;-78
2022/03/16 20:29:53;;;;;;;90.35;62.70;;;230.90;2252.80;;;;;;4901899;29;20080;-80
2022/03/16 20:32:23;;;;;;;129.57;84.28;;;230.90;2252.80;;;;;;4901708;29;20026;-78
2022/03/16 20:34:51;;;;;;;135.23;91.20;;;231.00;2252.80;;;;;;4918513;29;20028;-78
2022/03/16 20:37:17;;;;;;;144.60;95.70;;;231.00;2252.80;;;;;;4900869;29;20136;-78
2022/03/16 20:39:43;;;;;;;126.00;94.97;;;231.00;2252.80;;;;;;4929353;29;20047;-80
2022/03/16 20:42:09;;;;;;;115.10;82.85;;;231.00;2252.80;;;;;;4918361;29;20119;-79
2022/03/16 20:44:34;;;;;;;118.40;86.45;;;230.80;2252.80;;;;;;4902233;29;20121;-79
2022/03/16 20:47:00;;;;;;;108.40;82.15;;;230.80;2252.80;;;;;;4901969;29;20530;-82
2022/03/16 20:49:26;;;;;;;113.07;85.00;;;230.70;2252.80;;;;;;4901442;29;20051;-79
2022/03/16 20:51:52;;;;;;;110.72;80.38;;;230.80;2252.80;;;;;;4901641;29;20111;-79
2022/03/16 20:54:18;;;;;;;114.13;82.22;;;230.80;2252.80;;;;;;4901020;29;20475;-79
2022/03/16 20:56:44;;;;;;;131.32;96.32;;;230.90;2252.80;;;;;;4901079;29;20035;-80
2022/03/16 21:01:57;;;;;;;135.10;99.80;;;230.90;2252.80;;;;;;4917946;29;20475;-79
2022/03/16 21:04:26;;;;;;;158.43;108.03;;;230.90;2252.80;;;;;;4901122;29;20028;-79
2022/03/16 21:06:52;;;;;;;154.48;107.05;;;230.90;2252.80;;;;;;4901281;29;20036;-79
2022/03/16 21:09:30;;;;;;;208.65;134.43;;;231.00;2252.80;;;;;;4901228;29;20043;-78
2022/03/16 21:11:59;;;;;;;281.80;159.85;;;230.80;2252.80;;;;;;4901271;29;20028;-79
2022/03/16 21:14:27;;;;;;;275.33;170.93;;;230.70;2252.80;;;;;;4900776;29;20032;-78
2022/03/16 21:16:54;;;;;;;218.18;142.52;;;230.70;2252.80;;;;;;4900978;29;20055;-78
2022/03/16 21:19:21;;;;;;;178.93;119.38;;;230.90;2252.80;;;;;;4901065;29;20020;-80
2022/03/16 21:21:47;;;;;;;169.73;110.38;;;230.90;2252.80;;;;;;4900576;29;20020;-79
2022/03/16 21:24:13;;;;;;;68.75;47.83;;;230.90;2252.80;;;;;;4901147;29;20028;-80
2022/03/16 21:26:42;;;;;;;85.90;55.67;;;230.90;2252.80;;;;;;4901125;29;20024;-79
2022/03/16 21:29:53;;;;;;;85.78;60.80;;;230.80;2252.80;;;;;;4900662;29;20050;-79